Airport Name : Campo Dell Oro

Other Name : Ajaccio

ICAO : LFKJ

IATA : AJA

FAA :

Latitude : 41.923637

Longitude : 8.802917

Country : France

Local Date and Time : 7/18/2018 11:52:00 PM

 

TAF (Terminal Aerodrome Forecast)

TAF LFKJ 182000Z 1821/1921 04003KT CAVOK BECMG 1908/1910 24010KT

 

METAR (METeorological Aerodrome Report)

LFKJ 182130Z AUTO 01002KT CAVOK 22/19 Q1015 NOSIG

LFKJ 182100Z AUTO 11002KT CAVOK 23/20 Q1014 NOSIG

LFKJ 182030Z AUTO 08003KT CAVOK 24/20 Q1014 NOSIG

LFKJ 182000Z AUTO 05001KT CAVOK 24/21 Q1013 NOSIG

LFKJ 181930Z AUTO 00000KT CAVOK 25/22 Q1013 NOSIG

LFKJ 181900Z AUTO 00000KT CAVOK 25/22 Q1013 NOSIG

LFKJ 181830Z AUTO VRB02KT CAVOK 26/22 Q1013 NOSIG

LFKJ 181800Z AUTO VRB02KT CAVOK 26/22 Q1013 NOSIG